Time;durP1;ratioP1;P1;durP2;ratioP2;P2;SDS_P1;SDS_P2;PMS_P1;PMS_P2;Temp;Humidity;BMP_temperature;BMP_pressure;BME280_temperature;BME280_humidity;BME280_pressure;Samples;Min_cycle;Max_cycle;Signal;HPM_P1;HPM_P2
2022/10/08 00:00:45;;;;;;;10.25;3.08;;;13.40;99.90;;;;;;4962755;28;20042;-80
2022/10/08 00:03:12;;;;;;;11.98;3.13;;;13.40;99.90;;;;;;4941735;28;20043;-79
2022/10/08 00:05:38;;;;;;;17.45;3.25;;;13.40;99.90;;;;;;4941361;28;20058;-79
2022/10/08 00:08:05;;;;;;;14.32;3.88;;;13.40;99.90;;;;;;4940711;28;20118;-81
2022/10/08 00:10:31;;;;;;;16.02;3.45;;;13.40;99.90;;;;;;4943713;28;20175;-78
2022/10/08 00:12:58;;;;;;;12.50;3.25;;;13.40;99.90;;;;;;4932855;28;20094;-78
2022/10/08 00:15:25;;;;;;;14.65;3.42;;;13.40;99.90;;;;;;4933655;28;20047;-79
2022/10/08 00:17:50;;;;;;;10.82;3.20;;;13.30;99.90;;;;;;4946315;28;20039;-79
2022/10/08 00:20:16;;;;;;;11.55;3.28;;;13.20;99.90;;;;;;4951116;28;20402;-80
2022/10/08 00:22:42;;;;;;;12.27;3.35;;;13.20;99.90;;;;;;4949276;28;20094;-78
2022/10/08 00:25:09;;;;;;;10.15;3.28;;;13.00;99.90;;;;;;4933744;28;20165;-81
2022/10/08 00:27:35;;;;;;;12.48;3.40;;;13.00;99.90;;;;;;4932934;28;20051;-79
2022/10/08 00:30:02;;;;;;;14.55;3.03;;;12.90;99.90;;;;;;4927618;29;20040;-80
2022/10/08 00:32:28;;;;;;;15.38;3.10;;;12.90;99.90;;;;;;4952921;28;20462;-79
2022/10/08 00:34:53;;;;;;;11.43;3.17;;;12.80;99.90;;;;;;4928055;28;20043;-79
2022/10/08 00:37:19;;;;;;;11.23;3.17;;;12.80;99.90;;;;;;4932251;29;20047;-80
2022/10/08 00:39:45;;;;;;;14.52;3.40;;;12.70;99.90;;;;;;4928503;28;20417;-81
2022/10/08 00:42:12;;;;;;;11.70;2.97;;;12.70;99.90;;;;;;4931573;29;20043;-81
2022/10/08 00:44:49;;;;;;;11.52;3.25;;;12.70;99.90;;;;;;4968707;28;20134;-79
2022/10/08 00:47:18;;;;;;;12.13;3.55;;;12.60;99.90;;;;;;4947421;28;20058;-80
2022/10/08 00:49:46;;;;;;;12.40;3.85;;;12.60;99.90;;;;;;4933854;28;20054;-78
2022/10/08 00:52:12;;;;;;;15.55;3.58;;;12.60;99.90;;;;;;4946298;28;20047;-79
2022/10/08 00:54:37;;;;;;;15.95;4.00;;;12.60;99.90;;;;;;4930117;29;20550;-79
2022/10/08 00:57:05;;;;;;;17.33;4.45;;;12.60;99.90;;;;;;4949707;28;20039;-79
2022/10/08 00:59:30;;;;;;;15.10;4.30;;;12.50;99.90;;;;;;4950649;28;20159;-79
2022/10/08 01:01:56;;;;;;;11.80;3.70;;;12.40;99.90;;;;;;4935530;29;20096;-79
2022/10/08 01:04:21;;;;;;;11.98;3.80;;;12.50;99.90;;;;;;4934391;29;20047;-79
2022/10/08 01:07:12;;;;;;;13.02;3.50;;;12.50;99.90;;;;;;4946928;28;20054;-80
2022/10/08 01:09:52;;;;;;;19.50;4.50;;;12.50;99.90;;;;;;4932437;29;20070;-79
2022/10/08 01:12:54;;;;;;;13.85;4.07;;;12.50;99.90;;;;;;4945309;28;20054;-79
2022/10/08 01:15:30;;;;;;;11.57;4.18;;;12.50;99.90;;;;;;4946707;28;20126;-79
2022/10/08 01:18:09;;;;;;;16.55;4.70;;;12.50;99.90;;;;;;4950653;28;20043;-78
2022/10/08 01:20:46;;;;;;;9.00;3.88;;;12.50;99.90;;;;;;4944782;28;20046;-78
2022/10/08 01:23:45;;;;;;;12.40;4.03;;;12.40;99.90;;;;;;4943445;28;20047;-80
2022/10/08 01:26:33;;;;;;;13.55;3.97;;;12.40;99.90;;;;;;4945815;28;20378;-78
2022/10/08 01:29:14;;;;;;;12.05;4.38;;;12.40;99.90;;;;;;4936127;29;20101;-79
2022/10/08 01:31:46;;;;;;;12.48;4.10;;;12.50;99.90;;;;;;4933905;28;20118;-79
2022/10/08 01:34:24;;;;;;;11.32;4.20;;;12.50;99.90;;;;;;4942660;28;20055;-79
2022/10/08 01:36:52;;;;;;;11.68;4.20;;;12.50;99.90;;;;;;4946434;28;20498;-78
2022/10/08 01:39:21;;;;;;;13.60;4.03;;;12.50;99.90;;;;;;4950369;28;20078;-78
2022/10/08 01:41:57;;;;;;;10.93;4.10;;;12.50;99.90;;;;;;4946579;28;20616;-79
2022/10/08 01:44:47;;;;;;;8.43;3.42;;;12.40;99.90;;;;;;4926976;29;20056;-79
2022/10/08 01:47:17;;;;;;;10.98;3.78;;;12.40;99.90;;;;;;4945934;28;20082;-80
2022/10/08 01:49:56;;;;;;;10.50;3.75;;;12.40;99.90;;;;;;4933158;28;20490;-80
2022/10/08 01:52:30;;;;;;;10.25;3.47;;;12.40;99.90;;;;;;4930309;29;20566;-79
2022/10/08 01:55:04;;;;;;;10.25;3.55;;;12.30;99.90;;;;;;4929447;28;20053;-79
2022/10/08 01:57:32;;;;;;;10.77;3.67;;;12.30;99.90;;;;;;4948809;28;20043;-78
2022/10/08 02:00:06;;;;;;;8.98;3.65;;;12.30;99.90;;;;;;4950520;28;20039;-78
2022/10/08 02:02:32;;;;;;;10.93;3.67;;;12.20;99.90;;;;;;4941831;28;20502;-79
2022/10/08 02:04:57;;;;;;;12.13;3.97;;;12.20;99.90;;;;;;4929945;29;20105;-79
2022/10/08 02:07:27;;;;;;;8.57;3.78;;;12.20;99.90;;;;;;4942552;28;20331;-81
2022/10/08 02:10:04;;;;;;;7.38;3.50;;;12.30;99.90;;;;;;4927668;29;20047;-80
2022/10/08 02:12:30;;;;;;;12.15;3.97;;;12.20;99.90;;;;;;4944205;28;20050;-78
2022/10/08 02:14:57;;;;;;;10.63;3.60;;;12.30;99.90;;;;;;4946076;28;20043;-79
2022/10/08 02:17:38;;;;;;;10.80;3.60;;;12.30;99.90;;;;;;4948478;28;20138;-79
2022/10/08 02:20:19;;;;;;;7.78;3.25;;;12.30;99.90;;;;;;4934032;29;20462;-81
2022/10/08 02:23:11;;;;;;;8.85;3.17;;;12.30;99.90;;;;;;4944031;28;20044;-79
2022/10/08 02:25:49;;;;;;;8.77;3.45;;;12.30;99.90;;;;;;4949074;29;20047;-82
2022/10/08 02:28:30;;;;;;;9.32;3.75;;;12.30;99.90;;;;;;4945686;28;20048;-80
2022/10/08 02:31:08;;;;;;;7.10;3.50;;;12.40;99.90;;;;;;4931930;28;20446;-79
2022/10/08 02:33:41;;;;;;;9.88;3.88;;;12.40;99.90;;;;;;4942575;28;20058;-79
2022/10/08 02:36:10;;;;;;;8.50;3.45;;;12.30;99.90;;;;;;4930843;29;20040;-80
2022/10/08 02:38:44;;;;;;;7.15;3.63;;;12.30;99.90;;;;;;4946003;28;20043;-80
2022/10/08 02:41:11;;;;;;;8.13;3.38;;;12.40;99.90;;;;;;4928865;28;20122;-79
2022/10/08 02:43:41;;;;;;;8.98;3.20;;;12.30;99.90;;;;;;4940552;28;20046;-79
2022/10/08 02:46:16;;;;;;;13.73;3.47;;;12.30;99.90;;;;;;4945286;28;20067;-79
2022/10/08 02:48:49;;;;;;;9.02;3.03;;;12.30;99.90;;;;;;4946739;28;20043;-80
2022/10/08 02:51:17;;;;;;;7.10;2.80;;;12.20;99.90;;;;;;4930617;29;20130;-80
2022/10/08 02:53:44;;;;;;;9.73;3.10;;;12.10;99.90;;;;;;4930614;28;20039;-79
2022/10/08 02:56:30;;;;;;;7.38;2.65;;;12.10;99.90;;;;;;4932309;29;20047;-80
2022/10/08 02:58:55;;;;;;;12.35;3.22;;;12.00;99.90;;;;;;4942406;28;20036;-80
2022/10/08 03:01:25;;;;;;;10.77;3.13;;;12.00;99.90;;;;;;4930355;29;20054;-81
2022/10/08 03:04:01;;;;;;;11.55;3.40;;;11.90;99.90;;;;;;4945804;28;20047;-79
2022/10/08 03:06:28;;;;;;;8.48;3.38;;;11.90;99.90;;;;;;4928655;28;20058;-80
2022/10/08 03:08:58;;;;;;;8.90;3.50;;;11.90;99.90;;;;;;4950761;28;20102;-80
2022/10/08 03:11:25;;;;;;;9.00;3.55;;;11.80;99.90;;;;;;4946335;28;20086;-79
2022/10/08 03:13:57;;;;;;;9.27;3.50;;;11.80;99.90;;;;;;4930858;28;20183;-79
2022/10/08 03:16:26;;;;;;;8.35;3.25;;;11.70;99.90;;;;;;4928909;29;20159;-83
2022/10/08 03:18:52;;;;;;;11.35;3.00;;;11.70;99.90;;;;;;4927793;28;20051;-79
2022/10/08 03:21:19;;;;;;;9.18;2.78;;;11.70;99.90;;;;;;4943122;28;20094;-80
2022/10/08 03:23:44;;;;;;;7.75;2.80;;;11.60;99.90;;;;;;4927845;28;20094;-80
2022/10/08 03:26:10;;;;;;;8.50;3.03;;;11.60;99.90;;;;;;4926211;28;20091;-79
2022/10/08 03:28:35;;;;;;;9.82;3.35;;;11.50;99.90;;;;;;4930621;28;20498;-79
2022/10/08 03:31:05;;;;;;;9.82;3.22;;;11.50;99.90;;;;;;4947449;28;20047;-80
2022/10/08 03:33:32;;;;;;;10.23;3.10;;;11.50;99.90;;;;;;4946526;28;20074;-80
2022/10/08 03:35:58;;;;;;;10.38;3.22;;;11.50;99.90;;;;;;4944556;28;20102;-81
2022/10/08 03:38:23;;;;;;;12.43;3.63;;;11.40;99.90;;;;;;4946972;28;20036;-79
2022/10/08 03:40:55;;;;;;;10.02;3.38;;;11.40;99.90;;;;;;4945693;28;21873;-81
2022/10/08 03:43:21;;;;;;;11.93;3.63;;;11.40;99.90;;;;;;4962917;28;20044;-80
2022/10/08 03:45:53;;;;;;;8.93;3.20;;;11.40;99.90;;;;;;4933243;28;20051;-79
2022/10/08 03:48:20;;;;;;;;;;;11.40;99.90;;;;;;4951146;28;20138;-80
2022/10/08 03:50:57;;;;;;;9.13;3.20;;;11.40;99.90;;;;;;4951678;28;19923;-79
2022/10/08 03:53:24;;;;;;;10.30;3.33;;;11.30;99.90;;;;;;4930251;29;20110;-80
2022/10/08 03:55:50;;;;;;;7.80;3.00;;;11.30;99.90;;;;;;4946272;28;20085;-80
2022/10/08 03:58:16;;;;;;;11.23;3.03;;;11.30;99.90;;;;;;4942645;28;20059;-79
2022/10/08 04:00:42;;;;;;;10.93;3.40;;;11.30;99.90;;;;;;4943452;28;20047;-79
2022/10/08 04:03:08;;;;;;;13.93;3.20;;;11.30;99.90;;;;;;4947374;28;20047;-78
2022/10/08 04:05:34;;;;;;;10.68;3.58;;;11.30;99.90;;;;;;4944155;28;20532;-79
2022/10/08 04:07:59;;;;;;;12.13;3.53;;;11.30;99.90;;;;;;4942879;28;20054;-79
2022/10/08 04:10:25;;;;;;;11.82;4.18;;;11.30;99.90;;;;;;4942292;28;20106;-80
2022/10/08 04:12:50;;;;;;;15.50;3.63;;;11.40;99.90;;;;;;4947495;28;20042;-79
2022/10/08 04:15:16;;;;;;;15.35;4.85;;;11.40;99.90;;;;;;4946103;28;20043;-80
2022/10/08 04:17:42;;;;;;;14.75;4.40;;;11.40;99.90;;;;;;4942358;28;20044;-79
2022/10/08 04:20:08;;;;;;;13.05;4.72;;;11.40;99.90;;;;;;4945576;28;20054;-79
2022/10/08 04:22:34;;;;;;;15.38;5.18;;;11.40;99.90;;;;;;4944365;28;20126;-79
2022/10/08 04:24:59;;;;;;;15.82;5.18;;;11.50;99.90;;;;;;4943840;28;20482;-79
2022/10/08 04:27:25;;;;;;;12.35;4.50;;;11.50;99.90;;;;;;4948911;28;20074;-81
2022/10/08 04:29:51;;;;;;;11.55;5.03;;;11.50;99.90;;;;;;4943627;28;20066;-79
2022/10/08 04:32:16;;;;;;;14.80;5.07;;;11.50;99.90;;;;;;4946002;28;20092;-80
2022/10/08 04:34:42;;;;;;;14.40;4.60;;;11.60;99.90;;;;;;4944632;28;20570;-79
2022/10/08 04:37:08;;;;;;;14.48;5.05;;;11.60;99.90;;;;;;4946929;28;20494;-80
2022/10/08 04:39:33;;;;;;;19.02;5.18;;;11.70;99.90;;;;;;4944142;28;20043;-80
2022/10/08 04:41:59;;;;;;;14.07;4.97;;;11.70;99.90;;;;;;4943355;28;20078;-79
2022/10/08 04:44:24;;;;;;;15.32;4.80;;;11.70;99.90;;;;;;4923804;28;20126;-79
2022/10/08 04:46:50;;;;;;;14.07;5.00;;;11.70;99.90;;;;;;4931200;29;20500;-80
2022/10/08 04:49:16;;;;;;;11.88;4.43;;;11.80;99.90;;;;;;4944672;28;20039;-79
2022/10/08 04:51:41;;;;;;;10.88;4.60;;;11.70;99.90;;;;;;4947134;28;20131;-79
2022/10/08 04:54:07;;;;;;;17.77;4.65;;;11.70;99.90;;;;;;4943471;28;20063;-79
2022/10/08 04:56:35;;;;;;;15.70;4.78;;;11.70;99.90;;;;;;4947621;28;20066;-79
2022/10/08 04:59:02;;;;;;;16.58;4.57;;;11.70;99.90;;;;;;4924469;28;20043;-79
2022/10/08 05:01:28;;;;;;;15.82;4.72;;;11.70;99.90;;;;;;4943496;28;20125;-81
2022/10/08 05:03:56;;;;;;;11.80;4.28;;;11.80;99.90;;;;;;4928347;29;20067;-79
2022/10/08 05:06:24;;;;;;;14.57;4.13;;;11.80;99.90;;;;;;4929990;28;20557;-78
2022/10/08 05:08:50;;;;;;;20.77;4.68;;;11.80;99.90;;;;;;4928899;29;20039;-79
2022/10/08 05:11:17;;;;;;;8.82;3.70;;;11.70;99.90;;;;;;4927529;28;20054;-79
2022/10/08 05:13:47;;;;;;;13.82;3.70;;;11.70;99.90;;;;;;4949514;28;20078;-80
2022/10/08 05:16:13;;;;;;;13.55;4.30;;;11.80;99.90;;;;;;4943665;28;20388;-78
2022/10/08 05:18:40;;;;;;;11.80;3.92;;;11.80;99.90;;;;;;4932499;28;20050;-79
2022/10/08 05:21:09;;;;;;;12.52;3.83;;;11.80;99.90;;;;;;4959035;28;20074;-80
2022/10/08 05:23:35;;;;;;;13.73;3.67;;;11.70;99.90;;;;;;4945889;28;20043;-81
2022/10/08 05:26:14;;;;;;;12.95;3.63;;;11.70;99.90;;;;;;4944413;28;20043;-79
2022/10/08 05:28:41;;;;;;;13.18;3.25;;;11.60;99.90;;;;;;4948479;28;20043;-79
2022/10/08 05:31:06;;;;;;;11.93;3.33;;;11.60;99.90;;;;;;4949170;28;20063;-80
2022/10/08 05:33:34;;;;;;;8.95;2.88;;;11.50;99.90;;;;;;4954179;28;20071;-81
2022/10/08 05:36:05;;;;;;;9.32;2.92;;;11.50;99.90;;;;;;4941659;28;20065;-79
2022/10/08 05:38:31;;;;;;;10.63;2.88;;;11.50;99.90;;;;;;4949818;28;20055;-81
2022/10/08 05:41:12;;;;;;;10.90;3.00;;;11.50;99.90;;;;;;4948431;28;20069;-83
2022/10/08 05:43:38;;;;;;;11.35;2.90;;;11.40;99.90;;;;;;4942522;28;20062;-80
2022/10/08 05:46:04;;;;;;;13.88;3.05;;;11.30;99.90;;;;;;4930413;28;20054;-78
2022/10/08 05:48:29;;;;;;;12.45;3.30;;;11.30;99.90;;;;;;4932259;28;20107;-78
2022/10/08 05:50:55;;;;;;;11.25;3.63;;;11.20;99.90;;;;;;4942298;28;20050;-79
2022/10/08 05:53:21;;;;;;;12.82;3.70;;;11.20;99.90;;;;;;4946830;28;20096;-80
2022/10/08 05:55:46;;;;;;;10.63;4.10;;;11.20;99.90;;;;;;4931952;28;20054;-80
2022/10/08 05:58:12;;;;;;;13.38;3.67;;;11.20;99.90;;;;;;4941566;28;20047;-79
2022/10/08 06:00:38;;;;;;;14.23;4.63;;;11.10;99.90;;;;;;4951074;28;20042;-80
2022/10/08 06:03:03;;;;;;;13.85;4.60;;;11.10;99.90;;;;;;4937226;29;20044;-80
2022/10/08 06:05:29;;;;;;;14.63;4.30;;;11.10;99.90;;;;;;4927921;29;20047;-80
2022/10/08 06:07:56;;;;;;;19.90;4.80;;;11.10;99.90;;;;;;4934788;29;20458;-79
2022/10/08 06:10:23;;;;;;;14.15;4.78;;;11.10;99.90;;;;;;4950040;28;20043;-80
2022/10/08 06:12:49;;;;;;;12.05;4.60;;;11.10;99.90;;;;;;4947075;28;20054;-79
2022/10/08 06:15:15;;;;;;;15.40;4.95;;;11.00;99.90;;;;;;4947104;28;20395;-78
2022/10/08 06:17:40;;;;;;;13.00;4.78;;;11.10;99.90;;;;;;4947899;28;20054;-78
2022/10/08 06:20:06;;;;;;;14.63;5.20;;;11.10;99.90;;;;;;4951546;28;20099;-80
2022/10/08 06:22:32;;;;;;;17.98;5.40;;;11.10;99.90;;;;;;4928850;29;20091;-78
2022/10/08 06:24:57;;;;;;;14.95;4.97;;;11.10;99.90;;;;;;4945856;28;20047;-80
2022/10/08 06:27:23;;;;;;;12.73;4.90;;;11.10;99.90;;;;;;4947719;28;20067;-78
2022/10/08 06:29:48;;;;;;;14.57;4.80;;;11.10;99.90;;;;;;4948351;28;20050;-78
2022/10/08 06:32:14;;;;;;;15.23;5.18;;;11.10;99.90;;;;;;4952329;28;20266;-78
2022/10/08 06:34:40;;;;;;;14.80;5.45;;;11.10;99.90;;;;;;4941606;28;20236;-79
2022/10/08 06:37:06;;;;;;;12.73;5.28;;;11.00;99.90;;;;;;4936561;28;20122;-81
2022/10/08 06:39:32;;;;;;;14.15;5.00;;;11.00;99.90;;;;;;4945263;28;20099;-78
2022/10/08 06:41:57;;;;;;;17.70;5.00;;;11.00;99.90;;;;;;4931549;29;20051;-80
2022/10/08 06:44:23;;;;;;;12.88;4.75;;;11.00;99.90;;;;;;4925938;29;20048;-79
2022/10/08 06:46:48;;;;;;;16.52;5.40;;;11.00;99.90;;;;;;4945678;28;20103;-79
2022/10/08 06:49:14;;;;;;;14.93;5.45;;;11.00;99.90;;;;;;4945004;28;20077;-78
2022/10/08 06:51:40;;;;;;;19.52;5.70;;;11.10;99.90;;;;;;4925549;29;20051;-79
2022/10/08 06:54:06;;;;;;;14.73;4.88;;;11.10;99.90;;;;;;4929397;28;20051;-79
2022/10/08 06:56:33;;;;;;;16.88;5.50;;;11.10;99.90;;;;;;4943620;28;20345;-81
2022/10/08 06:58:59;;;;;;;18.95;5.18;;;11.10;99.90;;;;;;4947823;28;20062;-79
2022/10/08 07:01:26;;;;;;;13.15;4.85;;;11.20;99.90;;;;;;4943455;28;20043;-79
2022/10/08 07:03:57;;;;;;;18.80;5.30;;;11.30;99.90;;;;;;4945469;28;20137;-80
2022/10/08 07:06:23;;;;;;;16.95;4.78;;;11.30;99.90;;;;;;4964310;28;20088;-80
2022/10/08 07:08:53;;;;;;;13.88;4.60;;;11.40;99.90;;;;;;4949999;28;20130;-81
2022/10/08 07:11:20;;;;;;;17.05;4.95;;;11.40;99.90;;;;;;4949811;28;20039;-80
2022/10/08 07:13:46;;;;;;;10.45;4.68;;;11.40;99.90;;;;;;4945699;29;20063;-79
2022/10/08 07:16:15;;;;;;;13.32;5.00;;;11.50;99.90;;;;;;4949362;28;20450;-80
2022/10/08 07:18:41;;;;;;;13.75;4.40;;;11.60;99.90;;;;;;4946198;28;20090;-80
2022/10/08 07:21:10;;;;;;;12.15;4.72;;;11.60;99.90;;;;;;4953147;28;20035;-80
2022/10/08 07:23:36;;;;;;;23.90;8.43;;;11.60;99.90;;;;;;4943686;29;20067;-80
2022/10/08 07:26:08;;;;;;;22.17;11.35;;;11.70;99.90;;;;;;4953164;28;21764;-80
2022/10/08 07:28:36;;;;;;;24.83;13.88;;;11.80;99.90;;;;;;4934892;28;20042;-79
2022/10/08 07:31:06;;;;;;;22.90;11.13;;;11.90;99.90;;;;;;4933801;28;20502;-79
2022/10/08 07:33:32;;;;;;;12.45;5.25;;;11.90;99.90;;;;;;4955618;28;20039;-79
2022/10/08 07:36:10;;;;;;;16.20;6.25;;;12.00;99.90;;;;;;4948199;28;20047;-79
2022/10/08 07:38:37;;;;;;;18.25;8.57;;;12.10;99.90;;;;;;4953051;28;20043;-80
2022/10/08 07:41:03;;;;;;;12.52;5.90;;;12.10;99.90;;;;;;4951282;28;20045;-83
2022/10/08 07:43:28;;;;;;;14.40;4.00;;;12.20;99.90;;;;;;4946797;28;20043;-80
2022/10/08 07:45:54;;;;;;;13.93;3.58;;;12.20;99.90;;;;;;4947832;28;20042;-80
2022/10/08 07:48:20;;;;;;;11.57;3.22;;;12.20;99.90;;;;;;4950645;28;20133;-79
2022/10/08 07:50:45;;;;;;;15.90;3.17;;;12.20;99.90;;;;;;4950150;28;20101;-79
2022/10/08 07:53:11;;;;;;;14.95;3.35;;;12.30;99.90;;;;;;4938751;28;20053;-80
2022/10/08 07:55:37;;;;;;;10.05;2.35;;;12.30;99.90;;;;;;4948707;28;20043;-80
2022/10/08 07:58:03;;;;;;;13.43;2.85;;;12.30;99.90;;;;;;4962202;28;20035;-80
2022/10/08 08:00:29;;;;;;;14.07;3.15;;;12.30;99.90;;;;;;4939590;29;20078;-79
2022/10/08 08:02:54;;;;;;;15.13;2.70;;;12.40;99.90;;;;;;4944717;28;20074;-79
2022/10/08 08:05:20;;;;;;;14.95;3.20;;;12.40;99.90;;;;;;4950792;28;20047;-80
2022/10/08 08:07:46;;;;;;;11.32;2.38;;;12.40;99.90;;;;;;4953415;28;20047;-80
2022/10/08 08:10:11;;;;;;;15.40;2.25;;;12.50;99.90;;;;;;4935634;29;20043;-79
2022/10/08 08:12:37;;;;;;;10.35;1.63;;;12.50;99.90;;;;;;4931110;29;20454;-79
2022/10/08 08:15:03;;;;;;;13.45;1.95;;;12.60;99.90;;;;;;4935415;29;20041;-80
2022/10/08 08:17:28;;;;;;;12.35;2.10;;;12.60;99.90;;;;;;4943827;28;20043;-79
2022/10/08 08:19:54;;;;;;;13.40;2.33;;;12.60;99.90;;;;;;4942727;29;20073;-80
2022/10/08 08:22:20;;;;;;;12.73;2.22;;;12.70;99.90;;;;;;4937948;29;20043;-79
2022/10/08 08:24:45;;;;;;;13.20;2.45;;;12.80;99.90;;;;;;4955025;28;20133;-80
2022/10/08 08:27:11;;;;;;;11.63;2.30;;;12.80;99.90;;;;;;4958536;28;20047;-79
2022/10/08 08:29:36;;;;;;;13.90;2.30;;;12.90;99.90;;;;;;4973930;28;20047;-79
2022/10/08 08:32:02;;;;;;;8.18;1.80;;;12.90;99.90;;;;;;4942352;29;20066;-79
2022/10/08 08:34:29;;;;;;;9.65;2.33;;;12.90;99.90;;;;;;4950265;28;20102;-80
2022/10/08 08:36:54;;;;;;;11.82;2.05;;;13.00;99.90;;;;;;4938568;29;20046;-80
2022/10/08 08:39:26;;;;;;;9.48;2.42;;;13.10;99.90;;;;;;4957110;28;20087;-79
2022/10/08 08:42:08;;;;;;;10.55;1.92;;;13.10;99.90;;;;;;4958003;28;20045;-79
2022/10/08 08:44:42;;;;;;;13.82;2.45;;;13.20;99.90;;;;;;4927478;29;20058;-79
2022/10/08 08:47:29;;;;;;;11.90;1.77;;;13.30;99.90;;;;;;4944234;28;20051;-80
2022/10/08 08:50:04;;;;;;;13.23;2.17;;;13.30;99.90;;;;;;4932510;29;20134;-79
2022/10/08 08:52:37;;;;;;;12.68;1.92;;;13.40;99.90;;;;;;4950848;28;20039;-81
2022/10/08 08:55:08;;;;;;;;;;;13.50;99.90;;;;;;4945383;29;20043;-80
2022/10/08 08:58:12;;;;;;;12.63;2.28;;;13.50;99.90;;;;;;4943680;28;20369;-81
2022/10/08 09:00:46;;;;;;;7.07;1.80;;;13.50;99.90;;;;;;4895592;29;20043;-80
2022/10/08 09:03:43;;;;;;;9.32;2.08;;;13.60;99.90;;;;;;4948047;28;20464;-80
2022/10/08 09:06:13;;;;;;;9.93;2.08;;;13.70;99.90;;;;;;4929469;29;20051;-78
2022/10/08 09:09:04;;;;;;;14.63;1.95;;;13.80;99.90;;;;;;4954875;28;20043;-82
2022/10/08 09:11:29;;;;;;;8.20;2.08;;;13.80;99.90;;;;;;4953883;28;20051;-74
2022/10/08 09:14:06;;;;;;;7.50;1.63;;;13.80;99.90;;;;;;4952775;28;20050;-77
2022/10/08 09:16:34;;;;;;;9.07;2.00;;;13.90;99.90;;;;;;4958276;28;20039;-84
2022/10/08 09:18:59;;;;;;;10.38;1.83;;;14.00;99.90;;;;;;4949565;29;20043;-83
2022/10/08 09:21:30;;;;;;;8.75;1.88;;;14.00;99.90;;;;;;4945871;28;20616;-82
2022/10/08 09:23:55;;;;;;;7.93;1.85;;;14.10;99.90;;;;;;4949604;29;20071;-82
2022/10/08 09:26:23;;;;;;;3.88;1.25;;;14.10;99.90;;;;;;4942370;29;20051;-82
2022/10/08 09:28:55;;;;;;;8.25;1.75;;;14.20;99.90;;;;;;4958372;29;20050;-82
2022/10/08 09:31:44;;;;;;;10.73;2.55;;;14.20;99.90;;;;;;4945297;29;20134;-82
2022/10/08 09:34:09;;;;;;;11.10;2.08;;;14.20;99.90;;;;;;4936734;29;20058;-82
2022/10/08 09:36:40;;;;;;;5.60;1.30;;;14.20;99.90;;;;;;4953756;28;20052;-82
2022/10/08 09:39:34;;;;;;;11.43;1.92;;;14.20;99.90;;;;;;4956164;28;20046;-82
2022/10/08 09:42:50;;;;;;;6.43;1.25;;;14.30;99.90;;;;;;4944919;28;20146;-79
2022/10/08 09:45:36;;;;;;;6.07;1.40;;;14.50;99.90;;;;;;4950381;28;20091;-76
2022/10/08 09:48:17;;;;;;;9.57;1.50;;;14.50;99.90;;;;;;4940176;28;20101;-76
2022/10/08 09:50:51;;;;;;;9.13;1.42;;;14.60;99.90;;;;;;4945231;28;20585;-76
2022/10/08 09:53:19;;;;;;;9.00;1.50;;;14.70;99.90;;;;;;4933980;28;20082;-77
2022/10/08 09:55:52;;;;;;;8.00;1.15;;;14.70;99.90;;;;;;4946330;28;20035;-77
2022/10/08 09:58:18;;;;;;;10.70;1.55;;;14.70;99.90;;;;;;4947145;28;20035;-77
2022/10/08 10:00:53;;;;;;;7.68;1.40;;;14.80;99.90;;;;;;4945779;28;20047;-77
2022/10/08 10:03:19;;;;;;;11.15;1.70;;;14.80;99.90;;;;;;4933818;29;20049;-77
2022/10/08 10:05:51;;;;;;;8.07;1.40;;;14.90;99.90;;;;;;4949475;28;20055;-75
2022/10/08 10:08:45;;;;;;;6.07;1.40;;;15.00;99.90;;;;;;4948499;28;20047;-76
2022/10/08 10:11:25;;;;;;;7.38;1.45;;;15.20;99.90;;;;;;4944037;28;21402;-77
2022/10/08 10:13:50;;;;;;;8.98;1.48;;;15.40;99.90;;;;;;4954689;28;20035;-77
2022/10/08 10:16:24;;;;;;;4.97;1.20;;;15.60;99.90;;;;;;4951294;28;20466;-78
2022/10/08 10:19:03;;;;;;;5.97;1.23;;;15.60;99.90;;;;;;4950296;28;20050;-77
2022/10/08 10:21:56;;;;;;;8.50;1.55;;;15.70;99.90;;;;;;4947446;28;20035;-77
2022/10/08 10:24:47;;;;;;;4.45;1.13;;;15.80;99.90;;;;;;4947134;28;20517;-77
2022/10/08 10:27:48;;;;;;;11.38;1.70;;;16.10;99.90;;;;;;4963973;28;20062;-77
2022/10/08 10:30:18;;;;;;;6.45;1.50;;;16.30;99.90;;;;;;4949579;28;20039;-77
2022/10/08 10:33:08;;;;;;;9.05;1.77;;;16.40;99.90;;;;;;4949166;28;20054;-77
2022/10/08 10:35:39;;;;;;;7.60;1.55;;;16.40;99.90;;;;;;4947655;28;20047;-76
2022/10/08 10:38:18;;;;;;;7.05;1.25;;;16.30;99.90;;;;;;4948851;28;20102;-77
2022/10/08 10:40:50;;;;;;;6.40;1.73;;;15.90;99.90;;;;;;4949242;29;20044;-77
2022/10/08 10:43:36;;;;;;;7.95;1.70;;;15.50;99.90;;;;;;4954158;28;20050;-77
2022/10/08 10:46:13;;;;;;;7.93;1.60;;;15.20;99.90;;;;;;4941843;29;20070;-78
2022/10/08 10:48:39;;;;;;;9.52;1.30;;;15.00;99.90;;;;;;4948544;28;21097;-77
2022/10/08 10:51:22;;;;;;;6.40;1.50;;;15.00;99.90;;;;;;4955311;28;20130;-76
2022/10/08 10:54:00;;;;;;;7.25;1.52;;;14.90;99.90;;;;;;4949565;28;20049;-76
2022/10/08 10:56:31;;;;;;;12.00;1.60;;;14.90;99.90;;;;;;4965040;28;20047;-77
2022/10/08 10:59:15;;;;;;;9.53;1.70;;;14.90;99.90;;;;;;4930110;29;20039;-77
2022/10/08 11:02:11;;;;;;;12.57;1.70;;;15.00;99.90;;;;;;4947565;28;20047;-77
2022/10/08 11:04:51;;;;;;;8.38;1.42;;;15.10;99.90;;;;;;4935897;28;20066;-75
2022/10/08 11:07:32;;;;;;;8.30;1.50;;;15.30;99.90;;;;;;4939498;28;20047;-77
2022/10/08 11:10:17;;;;;;;9.57;1.70;;;15.60;99.90;;;;;;4949367;28;20055;-77
2022/10/08 11:12:51;;;;;;;9.85;1.70;;;15.80;99.90;;;;;;4944722;28;20090;-77
2022/10/08 11:15:22;;;;;;;8.10;1.75;;;16.20;99.90;;;;;;4950930;28;20047;-77
2022/10/08 11:17:53;;;;;;;11.43;1.63;;;16.40;99.90;;;;;;4948910;28;20042;-78
2022/10/08 11:20:49;;;;;;;7.03;1.60;;;16.70;99.90;;;;;;4935336;29;20126;-77
2022/10/08 11:23:30;;;;;;;6.82;1.20;;;16.90;99.90;;;;;;4925224;29;20062;-76
2022/10/08 11:26:17;;;;;;;5.97;1.45;;;17.20;99.90;;;;;;4924814;28;20622;-77
2022/10/08 11:28:59;;;;;;;6.63;1.70;;;17.50;99.90;;;;;;4939039;28;20047;-77
2022/10/08 11:31:44;;;;;;;10.23;1.98;;;17.70;99.90;;;;;;4940021;28;20043;-77
2022/10/08 11:34:29;;;;;;;7.90;1.92;;;17.70;99.90;;;;;;4951309;28;20183;-77
2022/10/08 11:37:03;;;;;;;6.18;1.10;;;17.80;99.90;;;;;;4962327;28;20043;-77
2022/10/08 11:39:41;;;;;;;8.88;1.58;;;18.00;99.90;;;;;;4938841;28;20040;-77
2022/10/08 11:42:31;;;;;;;6.28;1.33;;;18.20;99.90;;;;;;4943364;28;20039;-77
2022/10/08 11:45:22;;;;;;;10.63;1.50;;;18.40;99.90;;;;;;4935911;28;20051;-74
2022/10/08 11:47:50;;;;;;;9.18;1.73;;;18.60;99.90;;;;;;4959561;28;20047;-77
2022/10/08 11:50:36;;;;;;;4.30;1.17;;;18.90;99.40;;;;;;4940857;28;20059;-79
2022/10/08 11:53:14;;;;;;;5.85;1.27;;;19.40;99.40;;;;;;4949259;28;20061;-77
2022/10/08 11:55:55;;;;;;;9.68;1.30;;;19.80;96.80;;;;;;4941223;28;20042;-75
2022/10/08 11:58:26;;;;;;;5.57;1.40;;;19.80;93.60;;;;;;4949585;29;20043;-76
2022/10/08 12:01:00;;;;;;;7.28;1.55;;;19.80;92.20;;;;;;4941975;28;20042;-74
2022/10/08 12:03:29;;;;;;;8.00;1.45;;;19.50;92.30;;;;;;4943989;29;20524;-75
2022/10/08 12:06:11;;;;;;;7.28;1.40;;;19.30;92.80;;;;;;4949764;28;20174;-75
2022/10/08 12:08:51;;;;;;;;;;;19.40;93.00;;;;;;4928055;29;20126;-75
2022/10/08 12:11:37;;;;;;;7.93;1.50;;;19.60;93.60;;;;;;4945569;29;19918;-76
2022/10/08 12:17:03;;;;;;;7.32;1.60;;;20.10;92.60;;;;;;4951617;28;20057;-76
2022/10/08 12:19:32;;;;;;;6.60;1.30;;;20.10;91.30;;;;;;4940662;28;20099;-75
2022/10/08 12:22:27;;;;;;;8.93;1.50;;;20.00;90.70;;;;;;4957815;28;20070;-76
2022/10/08 12:24:57;;;;;;;8.93;1.77;;;19.90;88.20;;;;;;4928522;28;20475;-77
2022/10/08 12:27:27;;;;;;;8.98;1.58;;;19.80;90.20;;;;;;4947465;28;20070;-77
2022/10/08 12:30:13;;;;;;;6.93;1.60;;;19.90;87.70;;;;;;4947856;28;20510;-77
2022/10/08 12:32:38;;;;;;;8.07;1.40;;;19.60;86.90;;;;;;4940899;28;20047;-77
2022/10/08 12:35:05;;;;;;;7.43;1.73;;;19.60;90.00;;;;;;4927169;28;20046;-77
2022/10/08 12:38:02;;;;;;;8.15;1.70;;;19.80;90.60;;;;;;4947004;28;20071;-77
2022/10/08 12:40:44;;;;;;;5.25;1.38;;;19.90;88.30;;;;;;4952235;28;20052;-77
2022/10/08 12:43:17;;;;;;;9.73;1.60;;;19.80;90.50;;;;;;4949224;28;20066;-75
2022/10/08 12:45:52;;;;;;;7.05;1.40;;;19.90;89.50;;;;;;4948638;28;20064;-77
2022/10/08 12:48:37;;;;;;;8.40;1.48;;;19.90;90.60;;;;;;4950573;28;20078;-77
2022/10/08 12:51:24;;;;;;;7.63;1.70;;;20.10;91.60;;;;;;4949898;28;20058;-77
2022/10/08 12:53:50;;;;;;;5.80;1.27;;;20.00;87.90;;;;;;4954113;28;20059;-78
2022/10/08 12:56:23;;;;;;;5.70;1.27;;;19.70;89.10;;;;;;4952360;28;20043;-77
2022/10/08 12:58:49;;;;;;;6.85;1.40;;;19.30;90.00;;;;;;4968687;28;20490;-77
2022/10/08 13:01:18;;;;;;;6.93;1.30;;;19.00;90.80;;;;;;4950082;28;20043;-75
2022/10/08 13:03:44;;;;;;;7.53;1.50;;;18.90;92.10;;;;;;4950031;28;20054;-77
2022/10/08 13:06:15;;;;;;;8.32;1.52;;;18.90;91.90;;;;;;4944255;28;20675;-77